Time;durP1;ratioP1;P1;durP2;ratioP2;P2;SDS_P1;SDS_P2;PMS_P1;PMS_P2;Temp;Humidity;BMP_temperature;BMP_pressure;BME280_temperature;BME280_humidity;BME280_pressure;Samples;Min_cycle;Max_cycle;Signal;HPM_P1;HPM_P2
2023/07/01 00:00:10;;;;;;;5.30;2.70;;;;;;;;;;5045593;28;20052;-69
2023/07/01 00:02:36;;;;;;;6.38;2.80;;;;;;;;;;5044948;28;20147;-69
2023/07/01 00:05:04;;;;;;;6.15;3.00;;;;;;;;;;5044930;28;20045;-69
2023/07/01 00:07:29;;;;;;;6.43;2.75;;;;;;;;;;5045059;28;20528;-69
2023/07/01 00:09:54;;;;;;;5.50;2.90;;;;;;;;;;5045343;28;20052;-69
2023/07/01 00:12:20;;;;;;;6.57;3.00;;;;;;;;;;5038446;28;20021;-69
2023/07/01 00:14:45;;;;;;;5.07;2.80;;;;;;;;;;5044766;28;20037;-69
2023/07/01 00:17:12;;;;;;;4.90;2.90;;;;;;;;;;5044558;28;20039;-69
2023/07/01 00:19:37;;;;;;;5.10;2.80;;;;;;;;;;5044595;28;20033;-69
2023/07/01 00:22:03;;;;;;;5.90;2.78;;;;;;;;;;5045083;28;20033;-69
2023/07/01 00:24:28;;;;;;;4.43;2.90;;;;;;;;;;5044766;28;20517;-69
2023/07/01 00:26:54;;;;;;;5.75;3.08;;;;;;;;;;5043678;28;20513;-69
2023/07/01 00:29:19;;;;;;;5.78;3.08;;;;;;;;;;5033353;28;20033;-69
2023/07/01 00:31:44;;;;;;;7.60;3.10;;;;;;;;;;5043339;28;20465;-69
2023/07/01 00:34:10;;;;;;;6.13;2.88;;;;;;;;;;5044899;28;20041;-69
2023/07/01 00:36:35;;;;;;;4.65;2.67;;;;;;;;;;5045366;28;20025;-69
2023/07/01 00:39:03;;;;;;;5.40;2.70;;;;;;;;;;5043212;28;20475;-69
2023/07/01 00:41:28;;;;;;;4.72;2.38;;;;;;;;;;5044821;28;20112;-69
2023/07/01 00:43:53;;;;;;;4.80;2.42;;;;;;;;;;5044788;28;20124;-69
2023/07/01 00:46:21;;;;;;;3.25;2.17;;;;;;;;;;5044681;28;20111;-69
2023/07/01 00:48:47;;;;;;;4.40;2.38;;;;;;;;;;5044843;28;20033;-69
2023/07/01 00:51:12;;;;;;;5.15;2.47;;;;;;;;;;5045448;28;20075;-69
2023/07/01 00:53:39;;;;;;;3.42;2.22;;;;;;;;;;5076880;28;20040;-69
2023/07/01 00:56:05;;;;;;;5.32;2.90;;;;;;;;;;5044775;28;20040;-69
2023/07/01 00:58:32;;;;;;;4.78;2.78;;;;;;;;;;5045064;28;20033;-69
2023/07/01 01:01:02;;;;;;;7.47;3.50;;;;;;;;;;5045029;28;20037;-69
2023/07/01 01:03:36;;;;;;;6.25;2.92;;;;;;;;;;5047026;28;20043;-69
2023/07/01 01:06:33;;;;;;;6.10;3.40;;;;;;;;;;5049330;28;20849;-69
2023/07/01 01:09:10;;;;;;;5.93;3.28;;;;;;;;;;5044420;28;20040;-69
2023/07/01 01:11:38;;;;;;;8.27;3.90;;;;;;;;;;5076467;28;20044;-69
2023/07/01 01:14:05;;;;;;;7.30;3.55;;;;;;;;;;5044914;28;20533;-69
2023/07/01 01:16:30;;;;;;;6.75;3.35;;;;;;;;;;5042962;28;20041;-69
2023/07/01 01:18:58;;;;;;;7.60;3.22;;;;;;;;;;5042929;28;20032;-69
2023/07/01 01:21:25;;;;;;;8.93;3.10;;;;;;;;;;5044844;28;20032;-69
2023/07/01 01:23:57;;;;;;;3.80;2.40;;;;;;;;;;5044402;28;20041;-69
2023/07/01 01:26:26;;;;;;;4.23;2.17;;;;;;;;;;5044591;28;20040;-69
2023/07/01 01:28:52;;;;;;;5.00;2.00;;;;;;;;;;5040519;28;20503;-69
2023/07/01 01:31:19;;;;;;;3.22;2.35;;;;;;;;;;5030794;28;20757;-69
2023/07/01 01:33:46;;;;;;;4.45;2.22;;;;;;;;;;5041193;28;20021;-69
2023/07/01 01:36:30;;;;;;;5.40;2.10;;;;;;;;;;5048618;28;20063;-69
2023/07/01 01:39:05;;;;;;;3.97;1.90;;;;;;;;;;5051807;28;20036;-69
2023/07/01 01:41:54;;;;;;;3.92;2.50;;;;;;;;;;5046281;28;20045;-69
2023/07/01 01:44:31;;;;;;;3.17;2.05;;;;;;;;;;5048087;28;20037;-69
2023/07/01 01:46:57;;;;;;;2.83;2.08;;;;;;;;;;5045797;28;20568;-69
2023/07/01 01:49:23;;;;;;;3.80;2.10;;;;;;;;;;5047469;28;20029;-69
2023/07/01 01:51:48;;;;;;;2.08;1.65;;;;;;;;;;5047543;28;20055;-69
2023/07/01 01:54:14;;;;;;;2.35;1.75;;;;;;;;;;5048326;28;20032;-69
2023/07/01 01:56:41;;;;;;;3.42;1.83;;;;;;;;;;5046007;28;20045;-69
2023/07/01 01:59:07;;;;;;;3.00;2.00;;;;;;;;;;5047768;28;20028;-69
2023/07/01 02:01:34;;;;;;;4.03;1.85;;;;;;;;;;5047259;28;20051;-69
2023/07/01 02:04:00;;;;;;;4.90;1.75;;;;;;;;;;5047275;28;20154;-69
2023/07/01 02:06:25;;;;;;;5.25;2.00;;;;;;;;;;5047796;28;20124;-69
2023/07/01 02:08:50;;;;;;;4.35;1.95;;;;;;;;;;5045698;28;20414;-69
2023/07/01 02:11:16;;;;;;;2.53;1.90;;;;;;;;;;5041102;28;20531;-69
2023/07/01 02:13:41;;;;;;;2.70;1.65;;;;;;;;;;5045727;28;20430;-69
2023/07/01 02:16:07;;;;;;;3.92;1.90;;;;;;;;;;5079020;28;20029;-69
2023/07/01 02:18:32;;;;;;;3.78;2.08;;;;;;;;;;5048231;28;20029;-69
2023/07/01 02:20:57;;;;;;;4.35;2.10;;;;;;;;;;5046517;28;20033;-70
2023/07/01 02:23:23;;;;;;;5.55;2.08;;;;;;;;;;5047059;28;20063;-70
2023/07/01 02:25:48;;;;;;;2.95;2.13;;;;;;;;;;5047627;28;20068;-69
2023/07/01 02:28:13;;;;;;;4.50;2.08;;;;;;;;;;5048823;28;20037;-70
2023/07/01 02:30:39;;;;;;;4.57;2.20;;;;;;;;;;5051455;28;20035;-69
2023/07/01 02:33:04;;;;;;;4.35;2.10;;;;;;;;;;5050059;28;20033;-69
2023/07/01 02:35:30;;;;;;;4.13;2.15;;;;;;;;;;5079509;28;20084;-69
2023/07/01 02:37:55;;;;;;;6.45;1.92;;;;;;;;;;5047216;28;20057;-70
2023/07/01 02:40:20;;;;;;;3.63;1.85;;;;;;;;;;5045307;28;20124;-69
2023/07/01 02:42:46;;;;;;;3.15;1.98;;;;;;;;;;5046539;28;20032;-70
2023/07/01 02:45:11;;;;;;;3.47;1.88;;;;;;;;;;5047500;28;20113;-70
2023/07/01 02:47:36;;;;;;;2.08;1.80;;;;;;;;;;5045413;28;20029;-70
2023/07/01 02:50:04;;;;;;;4.43;1.90;;;;;;;;;;5046662;28;20788;-69
2023/07/01 02:52:29;;;;;;;3.38;1.90;;;;;;;;;;5046555;28;20561;-69
2023/07/01 02:54:54;;;;;;;4.05;2.00;;;;;;;;;;5046431;28;20112;-70
2023/07/01 02:57:20;;;;;;;6.15;2.10;;;;;;;;;;5047407;28;20406;-69
2023/07/01 02:59:46;;;;;;;4.10;1.90;;;;;;;;;;5045854;28;20037;-70
2023/07/01 03:02:11;;;;;;;6.18;2.00;;;;;;;;;;5046202;28;20037;-69
2023/07/01 03:04:37;;;;;;;3.38;1.83;;;;;;;;;;5046301;28;20098;-70
2023/07/01 03:07:04;;;;;;;4.68;2.20;;;;;;;;;;5046218;28;20025;-69
2023/07/01 03:09:29;;;;;;;2.60;2.00;;;;;;;;;;5046723;28;20027;-69
2023/07/01 03:11:55;;;;;;;4.18;2.00;;;;;;;;;;5045491;28;20072;-70
2023/07/01 03:14:20;;;;;;;3.30;2.22;;;;;;;;;;5045095;28;20093;-69
2023/07/01 03:16:46;;;;;;;3.00;1.85;;;;;;;;;;5045557;28;20600;-69
2023/07/01 03:19:12;;;;;;;2.08;1.67;;;;;;;;;;5046235;28;20609;-69
2023/07/01 03:21:37;;;;;;;3.83;1.70;;;;;;;;;;5046884;28;20592;-69
2023/07/01 03:24:03;;;;;;;6.40;2.10;;;;;;;;;;5045274;28;20025;-70
2023/07/01 03:26:28;;;;;;;3.92;1.83;;;;;;;;;;5045993;28;20033;-69
2023/07/01 03:28:54;;;;;;;2.53;1.70;;;;;;;;;;5045936;28;20036;-70
2023/07/01 03:31:22;;;;;;;2.25;1.65;;;;;;;;;;5045567;28;20071;-69
2023/07/01 03:33:48;;;;;;;2.60;1.77;;;;;;;;;;5045411;28;20021;-69
2023/07/01 03:36:14;;;;;;;2.38;1.60;;;;;;;;;;5046410;28;20020;-70
2023/07/01 03:38:39;;;;;;;2.17;1.50;;;;;;;;;;5045429;28;20516;-69
2023/07/01 03:41:07;;;;;;;4.57;1.77;;;;;;;;;;5045282;28;20040;-69
2023/07/01 03:43:32;;;;;;;4.32;1.90;;;;;;;;;;5044417;28;20573;-69
2023/07/01 03:45:58;;;;;;;1.75;1.33;;;;;;;;;;5045557;28;20021;-69
2023/07/01 03:48:23;;;;;;;2.42;1.60;;;;;;;;;;5044230;28;20025;-69
2023/07/01 03:50:48;;;;;;;2.30;1.60;;;;;;;;;;5043888;28;20078;-69
2023/07/01 03:53:14;;;;;;;2.17;1.55;;;;;;;;;;5046855;28;20746;-69
2023/07/01 03:55:39;;;;;;;1.98;1.25;;;;;;;;;;5048834;28;20037;-70
2023/07/01 03:58:05;;;;;;;1.95;1.45;;;;;;;;;;5040893;28;20095;-70
2023/07/01 04:00:30;;;;;;;2.28;1.50;;;;;;;;;;5043499;28;20549;-70
2023/07/01 04:03:02;;;;;;;1.38;1.10;;;;;;;;;;5043690;28;20033;-70
2023/07/01 04:05:27;;;;;;;1.73;1.30;;;;;;;;;;5045069;28;20052;-70
2023/07/01 04:07:52;;;;;;;2.05;1.48;;;;;;;;;;5045119;28;20202;-70
2023/07/01 04:10:18;;;;;;;1.67;1.40;;;;;;;;;;5045479;28;20128;-70
2023/07/01 04:12:43;;;;;;;2.40;1.60;;;;;;;;;;5044725;28;20495;-69
2023/07/01 04:15:12;;;;;;;2.80;1.30;;;;;;;;;;5045776;28;20029;-70
2023/07/01 04:17:41;;;;;;;2.40;1.33;;;;;;;;;;5043269;28;20039;-70
2023/07/01 04:20:07;;;;;;;1.80;1.40;;;;;;;;;;5043530;28;20415;-69
2023/07/01 04:22:32;;;;;;;1.95;1.25;;;;;;;;;;5045231;28;20719;-69
2023/07/01 04:24:58;;;;;;;1.50;1.10;;;;;;;;;;5044873;28;20100;-69
2023/07/01 04:27:23;;;;;;;1.60;1.40;;;;;;;;;;5045879;28;20479;-69
2023/07/01 04:29:48;;;;;;;1.52;1.20;;;;;;;;;;5043655;28;20071;-69
2023/07/01 04:32:14;;;;;;;1.67;1.35;;;;;;;;;;5044672;28;20045;-69
2023/07/01 04:34:39;;;;;;;1.40;1.10;;;;;;;;;;5044733;28;20041;-69
2023/07/01 04:37:04;;;;;;;2.25;1.40;;;;;;;;;;5044666;28;20033;-70
2023/07/01 04:39:30;;;;;;;1.65;1.23;;;;;;;;;;5045762;28;20152;-69
2023/07/01 04:41:55;;;;;;;2.75;1.33;;;;;;;;;;5044511;28;20037;-69
2023/07/01 04:44:23;;;;;;;1.27;1.15;;;;;;;;;;5045406;28;20034;-70
2023/07/01 04:46:49;;;;;;;1.65;1.20;;;;;;;;;;5045178;28;20518;-69
2023/07/01 04:49:15;;;;;;;1.23;1.00;;;;;;;;;;5044209;28;20067;-70
2023/07/01 04:51:41;;;;;;;1.77;1.20;;;;;;;;;;5041772;28;20039;-69
2023/07/01 04:54:06;;;;;;;1.60;1.23;;;;;;;;;;5077120;28;20063;-69
2023/07/01 04:56:31;;;;;;;1.75;1.20;;;;;;;;;;5044418;28;20061;-69
2023/07/01 04:58:57;;;;;;;1.40;1.20;;;;;;;;;;5043309;28;20120;-69
2023/07/01 05:01:22;;;;;;;1.58;1.05;;;;;;;;;;5044798;28;20039;-69
2023/07/01 05:03:48;;;;;;;1.75;1.00;;;;;;;;;;5045754;28;20103;-69
2023/07/01 05:06:13;;;;;;;1.58;1.20;;;;;;;;;;5047066;28;20060;-69
2023/07/01 05:08:38;;;;;;;1.77;1.00;;;;;;;;;;5048823;28;20041;-69
2023/07/01 05:11:04;;;;;;;1.95;1.08;;;;;;;;;;5042950;28;20130;-69
2023/07/01 05:13:29;;;;;;;1.63;0.95;;;;;;;;;;5060271;28;20457;-69
2023/07/01 05:15:55;;;;;;;1.60;1.30;;;;;;;;;;5049051;28;20442;-69
2023/07/01 05:18:20;;;;;;;1.55;0.90;;;;;;;;;;5050221;28;20059;-69
2023/07/01 05:20:46;;;;;;;2.63;1.20;;;;;;;;;;5052438;28;20547;-69
2023/07/01 05:23:11;;;;;;;2.67;1.23;;;;;;;;;;5049383;28;20036;-69
2023/07/01 05:25:36;;;;;;;1.38;1.15;;;;;;;;;;5047486;28;20044;-69
2023/07/01 05:28:02;;;;;;;1.42;1.20;;;;;;;;;;5047945;28;20044;-69
2023/07/01 05:30:27;;;;;;;1.73;1.30;;;;;;;;;;5047401;28;20029;-69
2023/07/01 05:32:52;;;;;;;2.00;1.23;;;;;;;;;;5048086;28;20049;-69
2023/07/01 05:35:18;;;;;;;1.70;1.33;;;;;;;;;;5047895;28;20048;-69
2023/07/01 05:37:43;;;;;;;1.98;1.30;;;;;;;;;;5047953;28;20072;-70
2023/07/01 05:40:09;;;;;;;2.22;1.10;;;;;;;;;;5046416;28;20039;-70
2023/07/01 05:42:34;;;;;;;2.55;1.10;;;;;;;;;;5048631;28;20488;-70
2023/07/01 05:44:59;;;;;;;1.50;1.20;;;;;;;;;;5042433;28;20075;-70
2023/07/01 05:47:25;;;;;;;1.27;1.10;;;;;;;;;;5045792;28;20558;-70
2023/07/01 05:49:50;;;;;;;2.50;1.20;;;;;;;;;;5080499;28;20048;-70
2023/07/01 05:52:16;;;;;;;1.75;1.00;;;;;;;;;;5046702;28;20537;-70
2023/07/01 05:54:41;;;;;;;1.52;1.10;;;;;;;;;;5045476;28;20029;-70
2023/07/01 05:57:06;;;;;;;2.47;1.20;;;;;;;;;;5047625;28;20564;-70
2023/07/01 05:59:32;;;;;;;1.50;1.05;;;;;;;;;;5047499;28;20388;-69
2023/07/01 06:01:57;;;;;;;1.40;1.15;;;;;;;;;;5047192;28;20060;-69
2023/07/01 06:04:22;;;;;;;1.60;1.15;;;;;;;;;;5047730;28;20446;-70
2023/07/01 06:06:48;;;;;;;2.40;1.20;;;;;;;;;;5047253;28;20734;-69
2023/07/01 06:09:15;;;;;;;1.98;1.27;;;;;;;;;;5047839;28;20024;-70
2023/07/01 06:11:41;;;;;;;1.45;1.10;;;;;;;;;;5047173;28;20037;-69
2023/07/01 06:14:06;;;;;;;1.85;1.10;;;;;;;;;;5047422;28;20041;-69
2023/07/01 06:16:31;;;;;;;1.95;1.30;;;;;;;;;;5045638;28;20181;-69
2023/07/01 06:18:57;;;;;;;3.95;1.20;;;;;;;;;;5047166;28;20044;-70
2023/07/01 06:21:22;;;;;;;1.25;1.15;;;;;;;;;;5048032;28;20748;-70
2023/07/01 06:23:48;;;;;;;1.77;1.40;;;;;;;;;;5045435;28;20453;-70
2023/07/01 06:26:13;;;;;;;1.25;1.05;;;;;;;;;;5047548;28;20111;-69
2023/07/01 06:28:38;;;;;;;1.92;1.17;;;;;;;;;;5046908;28;20577;-69
2023/07/01 06:31:04;;;;;;;1.75;1.30;;;;;;;;;;5046822;28;20033;-69
2023/07/01 06:33:29;;;;;;;2.35;1.50;;;;;;;;;;5047449;28;20025;-69
2023/07/01 06:35:55;;;;;;;2.55;1.67;;;;;;;;;;5046704;28;20048;-69
2023/07/01 06:38:20;;;;;;;1.65;1.45;;;;;;;;;;5045498;28;20645;-69
2023/07/01 06:40:46;;;;;;;1.65;1.40;;;;;;;;;;5046922;28;20041;-69
2023/07/01 06:43:11;;;;;;;3.20;1.60;;;;;;;;;;5049257;28;20025;-69
2023/07/01 06:45:37;;;;;;;1.77;1.38;;;;;;;;;;5050864;28;20028;-70
2023/07/01 06:48:03;;;;;;;1.55;1.15;;;;;;;;;;5046810;28;20091;-70
2023/07/01 06:50:29;;;;;;;1.98;1.58;;;;;;;;;;5045039;28;20033;-69
2023/07/01 06:52:54;;;;;;;3.03;1.45;;;;;;;;;;5046369;28;20522;-69
2023/07/01 06:55:19;;;;;;;5.47;1.50;;;;;;;;;;5040619;28;20048;-70
2023/07/01 06:57:45;;;;;;;2.35;1.20;;;;;;;;;;5039021;28;20379;-69
2023/07/01 07:00:12;;;;;;;3.00;1.42;;;;;;;;;;5031364;28;20443;-69
2023/07/01 07:02:39;;;;;;;1.40;1.30;;;;;;;;;;5038654;28;20044;-69
2023/07/01 07:05:05;;;;;;;1.88;1.10;;;;;;;;;;5044584;28;20053;-69
2023/07/01 07:07:31;;;;;;;1.38;1.13;;;;;;;;;;5078271;28;20522;-69
2023/07/01 07:09:56;;;;;;;1.70;1.20;;;;;;;;;;5045776;28;20029;-70
2023/07/01 07:12:22;;;;;;;1.67;1.40;;;;;;;;;;5039626;28;20410;-70
2023/07/01 07:14:47;;;;;;;1.85;1.30;;;;;;;;;;5037978;28;20692;-69
2023/07/01 07:17:13;;;;;;;1.90;1.40;;;;;;;;;;5032595;28;20029;-70
2023/07/01 07:19:38;;;;;;;1.30;1.20;;;;;;;;;;5035569;28;20064;-69
2023/07/01 07:22:05;;;;;;;2.42;1.25;;;;;;;;;;5045046;28;20041;-70
2023/07/01 07:24:30;;;;;;;1.55;1.10;;;;;;;;;;5078087;28;20031;-69
2023/07/01 07:26:57;;;;;;;2.20;1.55;;;;;;;;;;5044714;28;20037;-70
2023/07/01 07:29:30;;;;;;;1.92;1.35;;;;;;;;;;5044174;28;20049;-70
2023/07/01 07:31:57;;;;;;;2.13;1.42;;;;;;;;;;5045005;28;20036;-70
2023/07/01 07:34:23;;;;;;;2.58;1.65;;;;;;;;;;5044738;28;20083;-70
2023/07/01 07:36:48;;;;;;;2.92;1.70;;;;;;;;;;5035458;28;20049;-69
2023/07/01 07:39:14;;;;;;;2.40;1.73;;;;;;;;;;5033617;28;20048;-70
2023/07/01 07:41:40;;;;;;;2.90;1.75;;;;;;;;;;5038000;28;20044;-70
2023/07/01 07:44:06;;;;;;;2.40;1.80;;;;;;;;;;5052437;28;20072;-70
2023/07/01 07:46:35;;;;;;;4.15;2.10;;;;;;;;;;5038479;28;20072;-70
2023/07/01 07:49:01;;;;;;;2.60;1.70;;;;;;;;;;5062746;28;20425;-70
2023/07/01 07:51:27;;;;;;;2.55;1.70;;;;;;;;;;5045971;28;20071;-70
2023/07/01 07:53:52;;;;;;;3.53;1.90;;;;;;;;;;5046904;28;20037;-70
2023/07/01 07:56:17;;;;;;;2.13;1.50;;;;;;;;;;5041904;28;20033;-70
2023/07/01 07:58:44;;;;;;;2.42;1.40;;;;;;;;;;5032876;28;20940;-70
2023/07/01 08:01:10;;;;;;;1.60;1.38;;;;;;;;;;5021435;28;20045;-70
2023/07/01 08:03:35;;;;;;;3.25;1.50;;;;;;;;;;5036089;28;20452;-69
2023/07/01 08:06:01;;;;;;;1.55;1.40;;;;;;;;;;5042945;28;20045;-70
2023/07/01 08:08:26;;;;;;;2.35;1.40;;;;;;;;;;5046887;28;20039;-70
2023/07/01 08:10:53;;;;;;;2.03;1.42;;;;;;;;;;5047819;28;20036;-69
2023/07/01 08:13:18;;;;;;;3.08;1.63;;;;;;;;;;5041198;28;20098;-69
2023/07/01 08:15:44;;;;;;;1.55;1.33;;;;;;;;;;5043936;28;20049;-70
2023/07/01 08:18:09;;;;;;;1.90;1.70;;;;;;;;;;5045581;28;20028;-69
2023/07/01 08:20:35;;;;;;;1.80;1.55;;;;;;;;;;5044880;28;20090;-69
2023/07/01 08:23:00;;;;;;;3.13;1.52;;;;;;;;;;5043624;28;20033;-69
2023/07/01 08:25:25;;;;;;;2.25;1.50;;;;;;;;;;5044668;28;20079;-69
2023/07/01 08:27:51;;;;;;;3.03;1.40;;;;;;;;;;5039431;28;20043;-69
2023/07/01 08:30:17;;;;;;;2.25;1.50;;;;;;;;;;5035393;28;20029;-68
2023/07/01 08:32:42;;;;;;;1.92;1.60;;;;;;;;;;5026097;28;20084;-68
2023/07/01 08:35:09;;;;;;;2.60;1.65;;;;;;;;;;5033572;28;20725;-68
2023/07/01 08:37:34;;;;;;;1.77;1.25;;;;;;;;;;5033806;28;20036;-68
2023/07/01 08:40:00;;;;;;;2.20;1.33;;;;;;;;;;5041790;28;20025;-68
2023/07/01 08:42:58;;;;;;;1.48;1.27;;;;;;;;;;5044347;28;20017;-69
2023/07/01 08:45:24;;;;;;;2.13;1.33;;;;;;;;;;5029469;28;20029;-69
2023/07/01 08:47:52;;;;;;;2.65;1.55;;;;;;;;;;5043704;28;20048;-68
2023/07/01 08:50:22;;;;;;;1.50;1.40;;;;;;;;;;5043789;28;20588;-68
2023/07/01 08:52:53;;;;;;;2.15;1.55;;;;;;;;;;5044129;28;20414;-68
2023/07/01 08:55:18;;;;;;;1.75;1.58;;;;;;;;;;5036402;28;20041;-68
2023/07/01 08:57:43;;;;;;;2.30;1.60;;;;;;;;;;5042841;28;20098;-68
2023/07/01 09:00:10;;;;;;;1.50;1.30;;;;;;;;;;5042204;28;20016;-68
2023/07/01 09:02:36;;;;;;;1.63;1.20;;;;;;;;;;5043604;28;20107;-68
2023/07/01 09:05:02;;;;;;;6.07;1.60;;;;;;;;;;5041207;28;20168;-67
2023/07/01 09:07:29;;;;;;;2.35;1.10;;;;;;;;;;5043282;28;20029;-68
2023/07/01 09:09:55;;;;;;;2.08;1.40;;;;;;;;;;5042183;28;20036;-68
2023/07/01 09:12:24;;;;;;;2.15;1.33;;;;;;;;;;5043744;28;20017;-70
2023/07/01 09:14:57;;;;;;;3.67;1.30;;;;;;;;;;5043793;28;20048;-68
2023/07/01 09:17:28;;;;;;;4.78;1.50;;;;;;;;;;5044268;28;20067;-69
2023/07/01 09:19:56;;;;;;;3.95;1.40;;;;;;;;;;5040193;28;20048;-69
2023/07/01 09:22:22;;;;;;;3.63;1.38;;;;;;;;;;5038139;28;20041;-70
2023/07/01 09:24:47;;;;;;;2.42;1.20;;;;;;;;;;5043303;28;20028;-69
2023/07/01 09:27:13;;;;;;;1.35;1.10;;;;;;;;;;5041074;28;20032;-68
2023/07/01 09:29:40;;;;;;;2.58;1.02;;;;;;;;;;5043238;28;20072;-69
2023/07/01 09:32:06;;;;;;;2.17;1.20;;;;;;;;;;5043473;28;20044;-68
2023/07/01 09:34:51;;;;;;;5.35;1.77;;;;;;;;;;5045276;28;20111;-69
2023/07/01 09:37:19;;;;;;;3.78;1.38;;;;;;;;;;5036019;28;20052;-69
2023/07/01 09:39:44;;;;;;;2.83;1.60;;;;;;;;;;5042937;28;20029;-69
2023/07/01 09:42:10;;;;;;;3.65;1.55;;;;;;;;;;5042372;28;20025;-69
2023/07/01 09:44:35;;;;;;;7.35;1.90;;;;;;;;;;5036770;28;20052;-68
2023/07/01 09:47:00;;;;;;;7.63;1.50;;;;;;;;;;5041930;28;20040;-68
2023/07/01 09:49:37;;;;;;;6.30;1.85;;;;;;;;;;5042428;28;20044;-69
2023/07/01 09:52:03;;;;;;;5.28;1.70;;;;;;;;;;5043184;28;20770;-69
2023/07/01 09:54:31;;;;;;;4.68;1.73;;;;;;;;;;5043282;28;20687;-73
2023/07/01 09:56:59;;;;;;;4.55;1.60;;;;;;;;;;5038848;28;20036;-69
2023/07/01 09:59:25;;;;;;;4.28;1.70;;;;;;;;;;5042328;28;20038;-68
2023/07/01 10:01:56;;;;;;;2.60;1.65;;;;;;;;;;5035553;28;20045;-69
2023/07/01 10:04:25;;;;;;;4.25;1.70;;;;;;;;;;5035440;28;20049;-71
2023/07/01 10:06:55;;;;;;;4.28;1.65;;;;;;;;;;5032240;28;20052;-74
2023/07/01 10:09:23;;;;;;;4.53;1.70;;;;;;;;;;5041502;28;20040;-69
2023/07/01 10:11:51;;;;;;;3.55;1.45;;;;;;;;;;5044606;28;20631;-69
2023/07/01 10:14:18;;;;;;;3.65;1.75;;;;;;;;;;5044490;28;20029;-70
2023/07/01 10:16:47;;;;;;;4.93;1.60;;;;;;;;;;5045210;28;20044;-70
2023/07/01 10:19:30;;;;;;;3.78;1.65;;;;;;;;;;5044149;28;20060;-70
2023/07/01 10:22:17;;;;;;;7.53;1.60;;;;;;;;;;5045655;28;20079;-70
2023/07/01 10:24:43;;;;;;;5.03;2.00;;;;;;;;;;5045742;28;20036;-70
2023/07/01 10:27:08;;;;;;;2.80;1.70;;;;;;;;;;5038094;28;20025;-69
2023/07/01 10:29:34;;;;;;;6.80;2.20;;;;;;;;;;5034504;28;20051;-69
2023/07/01 10:32:08;;;;;;;6.00;2.20;;;;;;;;;;5030511;28;20040;-69
2023/07/01 10:34:52;;;;;;;3.08;1.30;;;;;;;;;;5036074;28;20044;-69
2023/07/01 10:37:22;;;;;;;3.25;1.92;;;;;;;;;;5041726;28;20048;-70
2023/07/01 10:39:48;;;;;;;5.05;1.80;;;;;;;;;;5050250;28;21486;-69
2023/07/01 10:42:30;;;;;;;3.15;1.58;;;;;;;;;;5053488;28;20013;-70
2023/07/01 10:45:16;;;;;;;3.25;1.58;;;;;;;;;;5053945;28;20033;-69
2023/07/01 10:47:45;;;;;;;3.08;1.38;;;;;;;;;;5034331;28;20053;-69
2023/07/01 10:50:12;;;;;;;4.03;1.27;;;;;;;;;;5035983;28;20131;-69
2023/07/01 10:52:55;;;;;;;2.60;1.42;;;;;;;;;;5044405;28;20140;-70
2023/07/01 10:55:47;;;;;;;2.65;1.20;;;;;;;;;;5046490;28;20048;-69
2023/07/01 10:58:21;;;;;;;2.10;1.40;;;;;;;;;;5039289;28;20045;-69
2023/07/01 11:00:54;;;;;;;1.48;1.15;;;;;;;;;;5079957;28;20383;-70
2023/07/01 11:03:34;;;;;;;2.40;1.48;;;;;;;;;;5048721;28;20020;-69
2023/07/01 11:06:07;;;;;;;4.05;1.25;;;;;;;;;;5032779;28;20048;-70
2023/07/01 11:08:42;;;;;;;1.63;1.40;;;;;;;;;;5044425;28;20040;-70
2023/07/01 11:11:07;;;;;;;2.65;1.35;;;;;;;;;;5045212;28;20112;-70
2023/07/01 11:13:35;;;;;;;2.92;1.35;;;;;;;;;;5039354;28;20049;-70
2023/07/01 11:16:00;;;;;;;3.35;1.40;;;;;;;;;;5039687;28;20037;-70
2023/07/01 11:18:49;;;;;;;2.40;1.55;;;;;;;;;;5046273;28;20059;-70
2023/07/01 11:21:20;;;;;;;2.28;1.23;;;;;;;;;;5045166;28;20098;-69
2023/07/01 11:24:08;;;;;;;1.92;1.20;;;;;;;;;;5043511;28;20518;-70
2023/07/01 11:26:36;;;;;;;1.73;1.20;;;;;;;;;;5030171;28;20064;-70
2023/07/01 11:29:03;;;;;;;3.83;1.33;;;;;;;;;;5038829;28;20079;-70
2023/07/01 11:31:32;;;;;;;2.40;1.40;;;;;;;;;;5032171;28;20037;-69
2023/07/01 11:33:59;;;;;;;2.17;1.42;;;;;;;;;;5040919;28;20037;-70
2023/07/01 11:36:44;;;;;;;3.85;1.67;;;;;;;;;;5042434;28;20402;-70
2023/07/01 11:39:14;;;;;;;3.47;1.85;;;;;;;;;;5043819;28;20128;-71
2023/07/01 11:41:51;;;;;;;2.70;1.75;;;;;;;;;;5044131;28;20549;-70
2023/07/01 11:44:20;;;;;;;4.15;2.03;;;;;;;;;;5043384;28;20834;-71
2023/07/01 11:46:46;;;;;;;4.75;2.00;;;;;;;;;;5044306;28;20048;-70
2023/07/01 11:49:17;;;;;;;3.70;2.05;;;;;;;;;;5044960;28;20033;-70
2023/07/01 11:51:55;;;;;;;2.67;1.63;;;;;;;;;;5043012;28;20033;-69
2023/07/01 11:54:22;;;;;;;4.95;1.98;;;;;;;;;;5044969;28;20039;-69
2023/07/01 11:56:50;;;;;;;3.80;1.48;;;;;;;;;;5044132;28;20047;-70
2023/07/01 11:59:32;;;;;;;2.95;1.35;;;;;;;;;;5036199;28;20040;-77
2023/07/01 12:01:58;;;;;;;1.45;1.20;;;;;;;;;;5037054;28;20041;-71
2023/07/01 12:04:24;;;;;;;1.33;1.10;;;;;;;;;;5025327;28;20037;-70
2023/07/01 12:06:49;;;;;;;2.53;1.27;;;;;;;;;;5035738;28;20525;-70
2023/07/01 12:09:28;;;;;;;1.33;1.10;;;;;;;;;;5029913;28;20112;-70
2023/07/01 12:11:54;;;;;;;3.08;1.50;;;;;;;;;;5031709;28;20445;-70
2023/07/01 12:14:21;;;;;;;3.03;1.70;;;;;;;;;;5043190;28;20029;-70
2023/07/01 12:16:50;;;;;;;2.83;1.60;;;;;;;;;;5039792;28;21428;-70
2023/07/01 12:19:16;;;;;;;2.72;1.70;;;;;;;;;;5026390;28;20033;-69
2023/07/01 12:21:43;;;;;;;2.85;1.70;;;;;;;;;;5028628;28;20033;-69
2023/07/01 12:24:28;;;;;;;3.00;1.70;;;;;;;;;;5046175;28;20557;-69
2023/07/01 12:26:56;;;;;;;2.25;1.85;;;;;;;;;;5045796;28;20438;-69
2023/07/01 12:29:23;;;;;;;3.45;2.15;;;;;;;;;;5035582;28;20071;-69
2023/07/01 12:31:48;;;;;;;3.08;1.63;;;;;;;;;;5043422;28;20040;-69
2023/07/01 12:34:14;;;;;;;2.13;1.60;;;;;;;;;;5043894;28;20731;-69
2023/07/01 12:36:42;;;;;;;3.00;1.70;;;;;;;;;;5044118;28;20021;-69
2023/07/01 12:39:08;;;;;;;2.17;1.60;;;;;;;;;;5044140;28;20017;-69
2023/07/01 12:41:37;;;;;;;2.08;1.75;;;;;;;;;;5044014;28;20090;-69
2023/07/01 12:44:04;;;;;;;3.00;1.80;;;;;;;;;;5044048;28;20029;-69
2023/07/01 12:46:30;;;;;;;2.90;1.60;;;;;;;;;;5042513;28;20557;-69
2023/07/01 12:48:55;;;;;;;3.53;1.63;;;;;;;;;;5043644;28;20021;-69
2023/07/01 12:51:21;;;;;;;1.98;1.77;;;;;;;;;;5043883;28;20088;-69
2023/07/01 12:53:46;;;;;;;1.67;1.38;;;;;;;;;;5028850;28;20034;-69
2023/07/01 12:56:12;;;;;;;1.75;1.27;;;;;;;;;;5038990;28;20056;-69
2023/07/01 12:58:40;;;;;;;2.28;1.30;;;;;;;;;;5035022;28;20581;-69
2023/07/01 13:01:06;;;;;;;1.85;1.25;;;;;;;;;;5042466;28;20025;-69
2023/07/01 13:03:32;;;;;;;3.72;1.65;;;;;;;;;;5044291;28;20071;-69
2023/07/01 13:05:59;;;;;;;2.75;1.23;;;;;;;;;;5044220;28;20056;-69
2023/07/01 13:08:24;;;;;;;2.72;1.30;;;;;;;;;;5043877;28;20033;-69
2023/07/01 13:10:50;;;;;;;2.58;1.10;;;;;;;;;;5040555;28;20414;-69
2023/07/01 13:13:15;;;;;;;5.22;1.27;;;;;;;;;;5038866;28;20055;-69
2023/07/01 13:15:52;;;;;;;1.90;1.10;;;;;;;;;;5038113;28;20032;-69
2023/07/01 13:18:23;;;;;;;3.03;1.30;;;;;;;;;;5040831;28;20052;-70
2023/07/01 13:20:49;;;;;;;2.95;1.33;;;;;;;;;;5037865;28;20048;-70
2023/07/01 13:23:14;;;;;;;2.33;1.30;;;;;;;;;;5026099;28;20034;-70
2023/07/01 13:25:40;;;;;;;3.17;1.20;;;;;;;;;;5049553;28;20562;-69
2023/07/01 13:28:05;;;;;;;2.15;1.25;;;;;;;;;;5047413;28;20044;-69
2023/07/01 13:30:47;;;;;;;4.72;1.40;;;;;;;;;;5047659;28;20037;-69
2023/07/01 13:33:31;;;;;;;1.85;1.00;;;;;;;;;;5047331;28;20045;-69
2023/07/01 13:35:59;;;;;;;2.35;1.13;;;;;;;;;;5042154;28;20403;-68
2023/07/01 13:38:24;;;;;;;4.15;1.73;;;;;;;;;;5050081;28;20059;-69
2023/07/01 13:40:51;;;;;;;4.35;1.35;;;;;;;;;;5033172;28;20128;-69
2023/07/01 13:43:22;;;;;;;1.52;1.33;;;;;;;;;;5032076;28;20033;-69
2023/07/01 13:45:47;;;;;;;1.67;1.35;;;;;;;;;;5029509;28;20617;-68
2023/07/01 13:48:21;;;;;;;1.42;1.08;;;;;;;;;;5079932;28;20565;-68
2023/07/01 13:50:50;;;;;;;1.40;1.02;;;;;;;;;;5062867;28;20510;-69
2023/07/01 13:53:15;;;;;;;2.20;1.20;;;;;;;;;;5058687;28;20087;-68
2023/07/01 13:55:41;;;;;;;2.15;1.30;;;;;;;;;;5056534;28;20029;-68
2023/07/01 13:58:08;;;;;;;2.15;1.10;;;;;;;;;;5058100;28;20037;-68
2023/07/01 14:00:40;;;;;;;2.38;1.17;;;;;;;;;;5055609;28;20378;-69
2023/07/01 14:03:18;;;;;;;2.43;1.13;;;;;;;;;;5038559;28;20259;-68
2023/07/01 14:05:45;;;;;;;2.78;1.20;;;;;;;;;;5034845;28;20049;-68
2023/07/01 14:08:11;;;;;;;1.35;1.20;;;;;;;;;;5046188;28;20036;-68
2023/07/01 14:10:39;;;;;;;5.05;1.65;;;;;;;;;;5045997;28;20648;-68
2023/07/01 14:13:06;;;;;;;5.70;1.25;;;;;;;;;;5038933;28;20609;-68
2023/07/01 14:15:48;;;;;;;5.07;0.93;;;;;;;;;;5045538;28;20059;-68
2023/07/01 14:18:19;;;;;;;2.05;1.17;;;;;;;;;;5045570;28;20056;-69
2023/07/01 14:20:44;;;;;;;1.75;1.10;;;;;;;;;;5046284;28;20115;-68
2023/07/01 14:23:19;;;;;;;2.53;1.10;;;;;;;;;;5044885;28;20121;-68
2023/07/01 14:25:45;;;;;;;2.17;1.20;;;;;;;;;;5045459;28;20067;-68
2023/07/01 14:28:11;;;;;;;2.00;1.08;;;;;;;;;;5046401;28;20049;-68
2023/07/01 14:30:51;;;;;;;2.80;1.27;;;;;;;;;;5046368;28;20110;-69
2023/07/01 14:33:18;;;;;;;2.97;1.10;;;;;;;;;;5026905;28;20034;-68
2023/07/01 14:35:46;;;;;;;5.05;1.30;;;;;;;;;;5042743;28;20060;-68
2023/07/01 14:38:13;;;;;;;1.92;1.10;;;;;;;;;;5045338;28;20507;-69
2023/07/01 14:40:38;;;;;;;2.65;1.35;;;;;;;;;;5045421;28;20041;-68
2023/07/01 14:43:09;;;;;;;5.45;1.30;;;;;;;;;;5046018;28;20032;-68
2023/07/01 14:45:41;;;;;;;4.43;1.23;;;;;;;;;;5046889;28;20020;-68